Time;durP1;ratioP1;P1;durP2;ratioP2;P2;SDS_P1;SDS_P2;PMS_P1;PMS_P2;Temp;Humidity;BMP_temperature;BMP_pressure;BME280_temperature;BME280_humidity;BME280_pressure;Samples;Min_cycle;Max_cycle;Signal;HPM_P1;HPM_P2
2022/08/18 00:01:31;;;;;;;11.90;6.07;;;19.20;99.90;;;;;;5001629;28;20045;-81
2022/08/18 00:04:00;;;;;;;9.40;4.78;;;19.20;99.90;;;;;;4993852;28;20055;-82
2022/08/18 00:06:27;;;;;;;9.25;5.32;;;19.20;99.90;;;;;;5008980;28;21742;-81
2022/08/18 00:08:53;;;;;;;7.97;4.88;;;19.20;99.90;;;;;;4997878;28;20125;-81
2022/08/18 00:11:19;;;;;;;11.07;4.13;;;19.30;99.90;;;;;;5020449;28;20057;-81
2022/08/18 00:13:44;;;;;;;8.40;4.53;;;19.20;99.90;;;;;;4996110;28;20041;-82
2022/08/18 00:16:15;;;;;;;10.05;4.53;;;19.20;99.90;;;;;;4999616;28;20049;-81
2022/08/18 00:18:41;;;;;;;12.00;3.97;;;19.20;99.90;;;;;;5015468;28;20064;-81
2022/08/18 00:21:07;;;;;;;14.73;5.43;;;19.20;99.90;;;;;;5001889;28;21706;-82
2022/08/18 00:23:32;;;;;;;9.68;5.03;;;19.20;99.90;;;;;;5015301;28;20045;-82
2022/08/18 00:25:58;;;;;;;10.82;5.00;;;19.20;99.90;;;;;;4992478;28;20714;-82
2022/08/18 00:28:24;;;;;;;9.77;4.85;;;19.10;99.90;;;;;;4998913;28;20490;-81
2022/08/18 00:30:49;;;;;;;7.95;3.97;;;19.10;99.90;;;;;;4994385;28;20049;-81
2022/08/18 00:33:18;;;;;;;15.57;4.43;;;19.10;99.90;;;;;;4999470;28;20049;-82
2022/08/18 00:35:43;;;;;;;9.98;4.85;;;19.10;99.90;;;;;;5002280;28;20041;-81
2022/08/18 00:38:09;;;;;;;12.43;4.32;;;19.10;99.90;;;;;;5000095;28;20613;-81
2022/08/18 00:40:41;;;;;;;18.63;4.88;;;19.10;99.90;;;;;;4999750;28;20118;-81
2022/08/18 00:43:40;;;;;;;19.23;5.25;;;19.00;99.90;;;;;;5002234;28;20084;-81
2022/08/18 00:46:10;;;;;;;10.73;4.60;;;19.00;99.90;;;;;;5000404;28;20042;-81
2022/08/18 00:48:36;;;;;;;9.75;3.97;;;19.10;99.90;;;;;;4998650;28;20133;-81
2022/08/18 00:51:09;;;;;;;8.27;4.43;;;19.00;99.90;;;;;;4982685;28;20052;-82
2022/08/18 00:53:46;;;;;;;12.10;4.53;;;19.00;99.90;;;;;;4999517;28;20471;-82
2022/08/18 00:56:36;;;;;;;14.27;4.57;;;19.00;99.90;;;;;;5015586;28;20072;-81
2022/08/18 00:59:34;;;;;;;7.07;4.43;;;19.00;99.90;;;;;;4982030;28;20057;-81
2022/08/18 01:02:05;;;;;;;7.95;4.70;;;19.10;99.90;;;;;;4989376;28;20081;-82
2022/08/18 01:04:57;;;;;;;13.25;5.93;;;19.00;99.90;;;;;;5017369;28;20045;-81
2022/08/18 01:07:32;;;;;;;13.98;6.20;;;19.10;99.90;;;;;;5018976;28;20084;-81
2022/08/18 01:09:58;;;;;;;;;;;19.00;99.90;;;;;;5003103;28;20049;-81
2022/08/18 01:12:26;;;;;;;17.23;8.75;;;19.10;99.90;;;;;;5016959;28;19975;-82
2022/08/18 01:14:58;;;;;;;23.67;9.35;;;19.10;99.90;;;;;;4998166;28;20045;-82
2022/08/18 01:23:10;;;;;;;18.13;11.25;;;19.10;99.90;;;;;;5000148;28;19931;-82
2022/08/18 01:28:22;;;;;;;18.23;10.73;;;19.20;99.90;;;;;;5018797;28;20663;-81
2022/08/18 01:30:54;;;;;;;17.90;11.85;;;19.20;99.90;;;;;;5001497;28;20053;-81
2022/08/18 01:33:20;;;;;;;20.48;10.90;;;19.20;99.90;;;;;;5003359;28;20164;-81
2022/08/18 01:35:48;;;;;;;19.20;11.00;;;19.20;99.90;;;;;;5023002;28;20061;-81
2022/08/18 01:38:18;;;;;;;23.70;12.00;;;19.20;99.90;;;;;;5001670;28;20133;-81
2022/08/18 01:40:45;;;;;;;15.90;10.00;;;19.20;99.90;;;;;;5017568;28;20049;-81
2022/08/18 01:43:12;;;;;;;19.38;9.93;;;19.30;99.90;;;;;;5018832;28;20120;-81
2022/08/18 01:45:38;;;;;;;16.35;9.23;;;19.20;99.90;;;;;;5020461;28;20120;-82
2022/08/18 01:48:04;;;;;;;17.98;10.00;;;19.20;99.90;;;;;;5001362;28;20047;-81
2022/08/18 01:50:33;;;;;;;18.92;9.60;;;19.20;99.90;;;;;;5017387;28;20061;-81
2022/08/18 01:52:59;;;;;;;16.60;8.30;;;19.30;99.90;;;;;;5020501;28;20050;-82
2022/08/18 01:55:27;;;;;;;14.60;7.47;;;19.20;99.90;;;;;;5002653;28;20133;-81
2022/08/18 01:57:56;;;;;;;13.45;7.32;;;19.30;99.90;;;;;;5015624;28;20037;-82
2022/08/18 02:00:33;;;;;;;15.00;7.50;;;19.30;99.90;;;;;;5001477;28;20065;-82
2022/08/18 02:03:06;;;;;;;14.60;7.50;;;19.20;99.90;;;;;;5001174;28;20046;-82
2022/08/18 02:05:39;;;;;;;13.52;6.93;;;19.20;99.90;;;;;;5002918;28;20145;-82
2022/08/18 02:08:11;;;;;;;14.23;6.85;;;19.20;99.90;;;;;;4990523;28;20464;-82
2022/08/18 02:10:37;;;;;;;15.25;7.05;;;19.20;99.90;;;;;;5018301;28;20543;-82
2022/08/18 02:13:03;;;;;;;12.40;5.88;;;19.20;99.90;;;;;;4998708;28;20388;-82
2022/08/18 02:15:29;;;;;;;13.10;6.30;;;19.20;99.90;;;;;;4999844;28;20049;-82
2022/08/18 02:17:55;;;;;;;14.88;6.00;;;19.20;99.90;;;;;;5001545;28;20128;-83
2022/08/18 02:20:42;;;;;;;12.70;5.90;;;19.20;99.90;;;;;;4998366;28;20047;-82
2022/08/18 02:23:08;;;;;;;12.70;5.55;;;19.10;99.90;;;;;;5002131;28;20042;-81
2022/08/18 02:25:33;;;;;;;11.23;5.50;;;19.10;99.90;;;;;;4998214;28;20042;-82
2022/08/18 02:27:59;;;;;;;10.93;5.05;;;19.10;99.90;;;;;;5023322;28;20060;-82
2022/08/18 02:30:28;;;;;;;11.18;5.70;;;19.20;99.90;;;;;;4984100;28;20037;-82
2022/08/18 02:32:55;;;;;;;10.00;5.25;;;19.10;99.90;;;;;;5000909;28;20121;-81
2022/08/18 02:35:21;;;;;;;16.42;5.80;;;19.10;99.90;;;;;;5000941;28;20075;-82
2022/08/18 02:37:46;;;;;;;11.20;5.40;;;19.10;99.90;;;;;;4998195;28;20041;-82
2022/08/18 02:40:14;;;;;;;13.02;5.60;;;19.10;99.90;;;;;;4999544;28;21593;-82
2022/08/18 02:42:43;;;;;;;10.50;6.03;;;19.00;99.90;;;;;;5002895;28;20499;-82
2022/08/18 02:45:09;;;;;;;15.77;6.75;;;19.30;99.90;;;;;;5002065;28;20484;-82
2022/08/18 02:47:35;;;;;;;11.57;6.15;;;19.00;99.90;;;;;;4998791;28;20041;-82
2022/08/18 02:50:00;;;;;;;14.68;5.72;;;19.00;99.90;;;;;;5004093;28;20033;-82
2022/08/18 02:52:32;;;;;;;14.05;5.57;;;19.40;99.90;;;;;;5014988;28;20056;-82
2022/08/18 02:55:02;;;;;;;13.05;5.88;;;19.00;99.90;;;;;;4984950;28;20052;-82
2022/08/18 02:57:28;;;;;;;12.18;5.90;;;18.90;99.90;;;;;;5014936;28;20076;-82
2022/08/18 02:59:54;;;;;;;17.98;6.72;;;19.00;99.90;;;;;;4998341;28;20397;-82
2022/08/18 03:02:20;;;;;;;13.23;5.35;;;19.00;99.90;;;;;;5001920;28;20099;-82
2022/08/18 03:04:46;;;;;;;11.02;5.38;;;18.90;99.90;;;;;;5002307;28;20052;-81
2022/08/18 03:07:16;;;;;;;16.90;5.90;;;19.00;99.90;;;;;;5017912;28;20029;-80
2022/08/18 03:09:44;;;;;;;13.52;6.32;;;19.00;99.90;;;;;;5002525;28;20460;-81
2022/08/18 03:12:10;;;;;;;12.40;5.57;;;18.90;99.90;;;;;;5000863;28;20124;-82
2022/08/18 03:14:38;;;;;;;14.63;6.47;;;19.00;99.90;;;;;;5014974;28;20045;-82
2022/08/18 03:17:07;;;;;;;13.63;6.00;;;19.00;99.90;;;;;;5002343;28;20168;-82
2022/08/18 03:19:43;;;;;;;9.10;5.95;;;18.90;99.90;;;;;;4995649;28;21466;-82
2022/08/18 03:22:09;;;;;;;8.18;5.50;;;18.90;99.90;;;;;;5014932;28;20041;-82
2022/08/18 03:24:35;;;;;;;12.25;5.53;;;18.90;99.90;;;;;;5015971;28;20087;-82
2022/08/18 03:27:05;;;;;;;12.68;5.45;;;18.90;99.90;;;;;;4985441;28;20048;-82
2022/08/18 03:29:38;;;;;;;11.95;5.43;;;18.90;99.90;;;;;;5002931;28;20400;-82
2022/08/18 03:32:07;;;;;;;10.63;5.30;;;18.90;99.90;;;;;;5001121;28;20679;-81
2022/08/18 03:34:33;;;;;;;12.07;6.25;;;18.90;99.90;;;;;;4989538;28;20049;-82
2022/08/18 03:36:59;;;;;;;9.95;5.82;;;19.00;99.90;;;;;;5000578;28;20477;-82
2022/08/18 03:39:26;;;;;;;14.38;7.00;;;18.90;99.90;;;;;;4998252;28;20057;-82
2022/08/18 03:41:56;;;;;;;14.05;6.43;;;18.90;99.90;;;;;;4982003;28;20061;-82
2022/08/18 03:44:24;;;;;;;15.98;7.88;;;18.90;99.90;;;;;;5018640;28;20126;-82
2022/08/18 03:46:50;;;;;;;17.63;8.18;;;18.90;99.90;;;;;;5000415;28;20096;-82
2022/08/18 03:49:16;;;;;;;13.55;7.85;;;18.90;99.90;;;;;;5016895;28;20140;-82
2022/08/18 03:51:53;;;;;;;13.73;6.97;;;18.90;99.90;;;;;;5001401;28;20107;-82
2022/08/18 03:54:18;;;;;;;25.92;9.02;;;18.80;99.90;;;;;;4998308;28;20455;-82
2022/08/18 03:56:46;;;;;;;14.57;7.63;;;18.90;99.90;;;;;;4997457;28;20052;-81
2022/08/18 03:59:17;;;;;;;15.45;7.32;;;18.90;99.90;;;;;;5002468;28;20057;-82
2022/08/18 04:01:44;;;;;;;13.23;6.90;;;18.80;99.90;;;;;;5013747;28;20119;-81
2022/08/18 04:04:14;;;;;;;15.10;7.18;;;18.90;99.90;;;;;;4998064;28;20430;-82
2022/08/18 04:06:49;;;;;;;18.27;7.95;;;18.90;99.90;;;;;;4999999;28;20045;-82
2022/08/18 04:09:16;;;;;;;14.75;7.03;;;18.80;99.90;;;;;;5001857;28;20114;-81
2022/08/18 04:11:46;;;;;;;16.13;7.40;;;18.80;99.90;;;;;;4999193;28;20047;-82
2022/08/18 04:14:14;;;;;;;10.98;6.60;;;18.90;99.90;;;;;;5000544;28;20048;-81
2022/08/18 04:16:40;;;;;;;14.13;7.10;;;18.80;99.90;;;;;;5001199;28;20053;-82
2022/08/18 04:19:07;;;;;;;13.77;7.18;;;18.90;99.90;;;;;;5019043;28;20057;-81
2022/08/18 04:21:37;;;;;;;15.30;6.60;;;18.80;99.90;;;;;;5013750;28;20052;-81
2022/08/18 04:24:07;;;;;;;17.42;7.78;;;18.80;99.90;;;;;;4997065;28;20069;-82
2022/08/18 04:26:36;;;;;;;13.05;6.82;;;18.80;99.90;;;;;;4964858;28;20037;-82
2022/08/18 04:29:03;;;;;;;14.90;6.97;;;18.80;99.90;;;;;;4983083;28;20601;-81
2022/08/18 04:31:29;;;;;;;13.43;6.78;;;18.80;99.90;;;;;;4999759;28;20075;-82
2022/08/18 04:33:57;;;;;;;15.43;6.53;;;18.80;99.90;;;;;;5000943;28;20060;-82
2022/08/18 04:36:24;;;;;;;11.77;6.53;;;18.80;99.90;;;;;;5014078;28;20045;-81
2022/08/18 04:38:49;;;;;;;15.73;6.63;;;18.80;99.90;;;;;;5019854;28;20464;-81
2022/08/18 04:41:16;;;;;;;16.48;7.45;;;18.80;99.90;;;;;;5020947;28;20041;-81
2022/08/18 04:43:41;;;;;;;17.60;7.70;;;18.80;99.90;;;;;;5017341;28;20045;-82
2022/08/18 04:46:07;;;;;;;18.00;7.55;;;18.80;99.90;;;;;;5001549;28;20784;-82
2022/08/18 04:48:36;;;;;;;10.85;6.90;;;18.80;99.90;;;;;;5017970;28;20176;-81
2022/08/18 04:51:13;;;;;;;14.68;8.15;;;18.80;99.90;;;;;;4980855;28;20065;-82
2022/08/18 04:53:43;;;;;;;12.77;7.13;;;18.80;99.90;;;;;;5013445;28;20075;-81
2022/08/18 04:56:35;;;;;;;9.02;6.68;;;18.80;99.90;;;;;;5000207;28;20542;-82
2022/08/18 04:59:19;;;;;;;13.98;7.55;;;18.80;99.90;;;;;;4998868;28;20110;-80
2022/08/18 05:01:46;;;;;;;17.90;7.35;;;18.80;99.90;;;;;;5001005;28;20136;-82
2022/08/18 05:04:16;;;;;;;16.50;7.85;;;18.90;99.90;;;;;;5016457;28;20045;-81
2022/08/18 05:06:43;;;;;;;10.65;7.40;;;18.80;99.90;;;;;;4992104;28;20063;-82
2022/08/18 05:09:19;;;;;;;12.48;7.72;;;19.10;99.90;;;;;;4986271;28;20037;-81
2022/08/18 05:11:45;;;;;;;16.25;8.25;;;18.80;99.90;;;;;;5004588;28;20055;-81
2022/08/18 05:14:10;;;;;;;13.60;8.00;;;18.80;99.90;;;;;;5001250;28;20045;-83
2022/08/18 05:16:38;;;;;;;17.45;8.10;;;18.80;99.90;;;;;;4989725;28;20128;-82
2022/08/18 05:19:07;;;;;;;18.95;9.18;;;18.90;99.90;;;;;;5003604;28;20099;-81
2022/08/18 05:21:35;;;;;;;19.08;8.43;;;18.90;99.90;;;;;;5000203;28;20077;-82
2022/08/18 05:24:07;;;;;;;12.45;7.75;;;18.80;99.90;;;;;;5005010;28;20038;-82
2022/08/18 05:26:48;;;;;;;18.25;9.55;;;18.90;99.90;;;;;;4994068;28;20026;-82
2022/08/18 05:29:15;;;;;;;13.55;8.32;;;18.90;99.90;;;;;;5009924;28;20060;-82
2022/08/18 05:31:41;;;;;;;16.98;9.32;;;18.90;99.90;;;;;;4992390;28;20081;-82
2022/08/18 05:34:07;;;;;;;15.00;8.88;;;18.80;99.90;;;;;;5013834;28;20053;-81
2022/08/18 05:37:10;;;;;;;14.23;8.70;;;18.90;99.90;;;;;;4994447;28;20049;-81
2022/08/18 05:40:07;;;;;;;14.60;9.27;;;19.00;99.90;;;;;;4991304;28;20057;-81
2022/08/18 05:42:38;;;;;;;13.10;8.50;;;19.00;99.90;;;;;;4974937;28;20053;-81
2022/08/18 05:45:14;;;;;;;17.17;9.77;;;19.40;99.90;;;;;;5000017;28;20038;-82
2022/08/18 05:47:40;;;;;;;14.27;9.02;;;19.10;99.90;;;;;;5037956;28;20037;-81
2022/08/18 05:50:35;;;;;;;11.95;9.02;;;19.10;99.90;;;;;;4993656;28;20048;-82
2022/08/18 05:56:45;;;;;;;;;;;19.10;99.90;;;;;;5012836;28;20049;-82
2022/08/18 05:56:45;;;;;;;10.77;8.93;;;19.20;99.90;;;;;;5023849;28;20286;-82
2022/08/18 05:59:24;;;;;;;11.85;7.38;;;19.30;99.90;;;;;;5006853;28;20042;-82
2022/08/18 06:02:27;;;;;;;11.63;6.80;;;20.30;99.90;;;;;;5003593;28;20053;-81
2022/08/18 06:25:03;;;;;;;7.20;4.80;;;21.40;99.90;;;;;;4930972;29;20399;-82
2022/08/18 06:29:26;;;;;;;;;;;;;;;;;;;;;
2022/08/18 06:32:10;;;;;;;6.35;3.85;;;21.70;99.90;;;;;;4922134;28;20466;-81
2022/08/18 07:13:28;;;;;;;4.63;3.70;;;21.00;99.90;;;;;;4867857;29;20063;-85
2022/08/18 07:46:55;;;;;;;4.60;3.00;;;20.80;99.90;;;;;;4977882;28;20135;-84
2022/08/18 07:49:27;;;;;;;4.00;2.95;;;20.80;99.90;;;;;;4989939;28;20049;-83
2022/08/18 07:52:22;;;;;;;5.63;2.65;;;20.90;99.90;;;;;;4973319;28;20041;-82
2022/08/18 07:55:30;;;;;;;3.85;2.65;;;20.90;99.90;;;;;;4985856;28;20077;-82
2022/08/18 07:58:57;;;;;;;2.70;1.70;;;21.00;99.90;;;;;;5008027;28;20048;-82
2022/08/18 08:01:48;;;;;;;5.28;1.50;;;21.00;99.90;;;;;;4987035;28;20046;-82
2022/08/18 08:04:45;;;;;;;1.77;0.70;;;21.10;99.90;;;;;;5009140;28;20042;-81
2022/08/18 08:11:47;;;;;;;1.58;0.43;;;21.30;99.90;;;;;;4893841;29;20193;-82
2022/08/18 08:21:59;;;;;;;4.55;0.80;;;21.20;99.90;;;;;;4902908;29;20059;-82
2022/08/18 08:24:52;;;;;;;5.95;0.90;;;21.20;99.90;;;;;;4888490;29;20044;-83
2022/08/18 08:27:56;;;;;;;2.95;1.20;;;21.40;99.90;;;;;;4902936;29;20107;-85
2022/08/18 08:30:32;;;;;;;7.10;1.45;;;21.30;99.90;;;;;;4884780;29;20134;-87
2022/08/18 08:33:45;;;;;;;5.28;1.30;;;21.20;99.90;;;;;;4890700;29;20154;-85
2022/08/18 08:36:40;;;;;;;5.18;1.52;;;21.10;99.90;;;;;;4886368;29;20147;-83
2022/08/18 08:39:56;;;;;;;5.97;1.20;;;21.10;99.90;;;;;;4901407;29;20079;-80
2022/08/18 08:42:37;;;;;;;7.57;1.58;;;21.00;99.90;;;;;;4886648;29;20399;-84
2022/08/18 08:49:34;;;;;;;7.28;1.60;;;21.00;99.90;;;;;;4928944;28;20050;-83
2022/08/18 08:52:29;;;;;;;7.25;1.75;;;20.90;99.90;;;;;;4945409;28;20058;-84
2022/08/18 08:55:07;;;;;;;6.40;1.50;;;21.00;99.90;;;;;;4943822;28;20047;-84
2022/08/18 08:58:29;;;;;;;;;;;;;;;;;;;;;
2022/08/18 09:05:41;;;;;;;6.35;2.05;;;21.20;99.90;;;;;;5000505;28;20040;-83
2022/08/18 09:09:03;;;;;;;;;;;;;;;;;;;;;
2022/08/18 09:12:32;;;;;;;4.25;1.30;;;21.80;99.90;;;;;;4968748;28;20181;-81
2022/08/18 09:15:43;;;;;;;5.57;1.42;;;22.20;99.90;;;;;;4950932;28;20046;-83
2022/08/18 09:26:42;;;;;;;2.47;1.17;;;22.50;99.90;;;;;;4983337;28;20041;-82
2022/08/18 09:29:49;;;;;;;5.00;0.93;;;22.40;99.90;;;;;;4989034;28;20065;-81
2022/08/18 09:32:24;;;;;;;5.20;1.15;;;22.30;99.90;;;;;;4902892;29;20117;-82
2022/08/18 09:35:14;;;;;;;;;;;22.20;99.90;;;;;;4902298;29;20804;-84
2022/08/18 09:41:32;;;;;;;4.63;1.25;;;22.40;99.90;;;;;;4932748;29;20524;-82
2022/08/18 09:44:13;;;;;;;2.72;0.77;;;22.90;99.90;;;;;;4978253;28;20436;-82
2022/08/18 09:46:52;;;;;;;5.03;1.17;;;23.20;99.90;;;;;;4997887;28;20045;-83
2022/08/18 09:49:28;;;;;;;1.55;0.50;;;23.50;99.90;;;;;;5006036;28;20077;-82
2022/08/18 09:52:21;;;;;;;2.83;0.93;;;23.90;99.90;;;;;;4975568;28;20038;-82
2022/08/18 09:54:56;;;;;;;3.47;0.70;;;24.20;99.90;;;;;;4997439;28;20861;-82
2022/08/18 09:57:36;;;;;;;3.92;0.70;;;24.30;99.90;;;;;;4999062;28;20038;-81
2022/08/18 10:00:06;;;;;;;4.28;0.80;;;24.20;99.90;;;;;;4991164;28;20053;-82
2022/08/18 10:02:31;;;;;;;3.70;1.10;;;24.00;99.90;;;;;;4989012;28;20054;-82
2022/08/18 10:05:16;;;;;;;4.10;1.17;;;23.70;99.90;;;;;;4991366;28;20034;-83
2022/08/18 10:07:55;;;;;;;2.55;0.68;;;23.60;99.90;;;;;;4993295;28;20520;-82
2022/08/18 10:10:49;;;;;;;3.45;0.80;;;23.40;99.90;;;;;;4995335;28;20077;-82
2022/08/18 10:14:06;;;;;;;1.85;0.80;;;23.30;99.90;;;;;;4997947;28;20034;-82
2022/08/18 10:16:40;;;;;;;;;;;23.10;99.90;;;;;;5004880;28;20132;-82
2022/08/18 10:19:28;;;;;;;0.43;0.28;;;22.90;99.90;;;;;;4981085;28;19993;-83
2022/08/18 10:21:54;;;;;;;2.15;0.95;;;23.10;99.90;;;;;;5008075;28;20061;-81
2022/08/18 10:24:35;;;;;;;2.22;0.55;;;23.30;99.90;;;;;;5008993;28;20493;-82
2022/08/18 10:27:04;;;;;;;1.17;0.40;;;23.00;99.90;;;;;;4994159;28;20054;-81
2022/08/18 10:29:44;;;;;;;1.80;0.40;;;23.00;99.90;;;;;;5005526;28;20117;-82
2022/08/18 10:32:12;;;;;;;4.35;1.73;;;22.90;99.90;;;;;;4992279;28;20050;-81
2022/08/18 10:34:47;;;;;;;0.95;0.55;;;22.90;99.90;;;;;;4987203;28;20731;-81
2022/08/18 10:37:35;;;;;;;6.55;0.55;;;22.90;99.90;;;;;;4974349;28;20108;-81
2022/08/18 10:40:13;;;;;;;1.55;0.50;;;22.80;99.90;;;;;;4990152;28;20551;-81
2022/08/18 10:42:40;;;;;;;1.58;0.50;;;22.90;99.90;;;;;;4992262;28;20078;-82
2022/08/18 10:45:21;;;;;;;2.00;0.60;;;22.90;99.90;;;;;;5006822;28;20080;-81
2022/08/18 10:48:14;;;;;;;4.13;0.68;;;23.00;99.90;;;;;;4994220;28;20033;-81
2022/08/18 10:51:00;;;;;;;4.72;0.77;;;23.10;99.90;;;;;;5005958;28;20305;-82
2022/08/18 10:53:29;;;;;;;2.13;0.80;;;23.00;99.90;;;;;;4992684;28;20128;-82
2022/08/18 10:56:09;;;;;;;2.33;1.00;;;23.00;99.90;;;;;;5009427;28;20510;-82
2022/08/18 10:59:06;;;;;;;2.63;0.60;;;22.90;99.90;;;;;;4979580;28;20481;-81
2022/08/18 11:01:55;;;;;;;2.53;0.70;;;22.80;99.90;;;;;;4993888;28;20516;-82
2022/08/18 11:04:28;;;;;;;1.33;0.68;;;22.60;99.90;;;;;;5004782;28;20769;-82
2022/08/18 11:07:15;;;;;;;2.35;0.90;;;22.70;99.90;;;;;;5006379;28;20393;-83
2022/08/18 11:09:45;;;;;;;4.32;0.98;;;22.90;99.90;;;;;;4970748;28;20038;-84
2022/08/18 11:12:57;;;;;;;1.30;0.70;;;23.20;99.90;;;;;;4968040;28;20044;-84
2022/08/18 11:23:38;;;;;;;2.20;0.85;;;23.50;99.90;;;;;;5001884;28;20065;-83
2022/08/18 11:26:18;;;;;;;2.75;0.98;;;23.30;99.90;;;;;;4982441;28;20048;-83
2022/08/18 11:29:29;;;;;;;1.50;0.55;;;23.80;99.90;;;;;;4987124;28;20069;-84
2022/08/18 11:32:26;;;;;;;4.85;1.38;;;23.30;99.90;;;;;;4999401;28;20127;-83
2022/08/18 11:35:56;;;;;;;3.45;1.15;;;23.50;99.90;;;;;;4997116;23;20053;-83
2022/08/18 11:46:42;;;;;;;;;;;;;;;;;;;;;
2022/08/18 11:50:14;;;;;;;2.50;0.80;;;23.80;99.90;;;;;;4977180;28;20110;-83
2022/08/18 11:53:43;;;;;;;2.17;0.95;;;23.90;99.90;;;;;;5018674;28;20586;-83
2022/08/18 11:56:37;;;;;;;2.28;0.65;;;24.00;99.90;;;;;;4926201;28;20466;-82
2022/08/18 12:00:12;;;;;;;3.42;0.90;;;23.90;99.90;;;;;;4931771;28;20047;-85
2022/08/18 12:03:52;;;;;;;;;;;;;;;;;;;;;
2022/08/18 12:07:17;;;;;;;3.88;0.40;;;23.70;99.90;;;;;;4927075;28;20578;-85
2022/08/18 12:10:28;;;;;;;2.50;0.60;;;23.60;99.90;;;;;;4893652;29;20053;-83
2022/08/18 12:17:09;;;;;;;1.73;0.60;;;23.90;99.90;;;;;;4946070;28;20078;-85
2022/08/18 12:20:22;;;;;;;2.60;0.47;;;24.10;99.90;;;;;;4978375;28;20056;-84
2022/08/18 12:23:43;;;;;;;4.55;0.75;;;24.30;99.90;;;;;;4945546;28;20779;-84
2022/08/18 12:45:11;;;;;;;;;;;;;;;;;;;;;
2022/08/18 12:51:50;;;;;;;2.60;1.13;;;24.00;99.90;;;;;;4897992;29;20052;-84
2022/08/18 12:54:31;;;;;;;2.05;0.70;;;23.90;99.90;;;;;;4892967;29;20049;-84
2022/08/18 13:09:04;;;;;;;4.70;1.50;;;24.30;99.90;;;;;;4875188;29;20174;-84
2022/08/18 13:15:21;;;;;;;4.20;0.93;;;24.40;99.90;;;;;;4862469;29;20077;-83
2022/08/18 13:19:13;;;;;;;2.67;1.00;;;24.20;99.90;;;;;;4811724;29;20054;-84
2022/08/18 13:22:57;;;;;;;;;;;;;;;;;;;;;
2022/08/18 13:29:43;;;;;;;;;;;;;;;;;;;;;
2022/08/18 13:32:17;;;;;;;3.72;0.73;;;24.10;99.90;;;;;;4867055;29;20131;-84
2022/08/18 13:46:44;;;;;;;;;;;24.60;99.90;;;;;;5059398;22;20050;-85
2022/08/18 13:57:21;;;;;;;1.83;1.00;;;24.40;99.90;;;;;;4914944;29;20051;-84
2022/08/18 14:00:32;;;;;;;;;;;;;;;;;;;;;
2022/08/18 14:04:11;;;;;;;1.45;0.85;;;24.20;99.90;;;;;;4842402;29;20129;-85
2022/08/18 14:07:55;;;;;;;;;;;;;;;;;;;;;
2022/08/18 14:14:59;;;;;;;2.15;0.80;;;23.90;99.90;;;;;;4923767;22;20056;-84
2022/08/18 14:17:53;;;;;;;1.48;0.90;;;23.80;99.90;;;;;;5052555;28;20048;-84
2022/08/18 14:28:53;;;;;;;;;;;;;;;;;;;;;
2022/08/18 14:31:22;;;;;;;2.83;0.90;;;24.40;99.90;;;;;;4979634;28;20161;-83
2022/08/18 14:33:55;;;;;;;2.00;0.93;;;24.40;99.90;;;;;;4970403;28;20145;-81
2022/08/18 14:36:23;;;;;;;3.28;0.95;;;24.50;99.90;;;;;;5052326;28;20087;-82
2022/08/18 14:38:51;;;;;;;5.03;0.88;;;24.30;99.90;;;;;;5063706;28;20048;-82
2022/08/18 14:41:42;;;;;;;3.28;1.00;;;24.20;99.90;;;;;;5047046;28;20075;-82
2022/08/18 14:44:14;;;;;;;3.53;0.95;;;24.20;99.90;;;;;;5035555;28;20053;-83
2022/08/18 14:46:44;;;;;;;2.55;1.00;;;24.30;99.90;;;;;;5063202;28;20045;-81
2022/08/18 14:49:35;;;;;;;2.92;1.08;;;23.90;99.90;;;;;;5021191;28;20090;-81
2022/08/18 14:52:01;;;;;;;1.73;0.95;;;23.90;99.90;;;;;;5056512;28;20087;-81
2022/08/18 14:54:29;;;;;;;2.35;0.70;;;23.80;99.90;;;;;;5039535;28;20079;-81
2022/08/18 14:56:55;;;;;;;2.50;0.90;;;23.80;99.90;;;;;;5039371;28;20040;-81
2022/08/18 14:59:33;;;;;;;2.28;0.82;;;24.00;99.90;;;;;;5041916;28;20048;-83
2022/08/18 15:01:58;;;;;;;1.40;0.68;;;24.10;99.90;;;;;;5043334;28;20036;-82
2022/08/18 15:04:40;;;;;;;3.20;0.80;;;24.10;99.90;;;;;;5049320;28;20388;-83
2022/08/18 15:07:08;;;;;;;2.08;0.65;;;24.20;99.90;;;;;;5027326;28;20040;-83
2022/08/18 15:09:36;;;;;;;2.10;0.60;;;24.20;99.90;;;;;;5042644;28;20036;-83
2022/08/18 15:12:10;;;;;;;2.25;0.80;;;24.20;99.90;;;;;;5027294;28;20044;-83
2022/08/18 15:14:42;;;;;;;4.97;1.05;;;24.20;99.90;;;;;;5050759;28;20468;-83
2022/08/18 15:17:07;;;;;;;3.88;1.00;;;24.20;99.90;;;;;;5044039;28;20102;-82
2022/08/18 15:19:33;;;;;;;4.15;0.93;;;24.30;99.90;;;;;;5052471;28;20043;-82
2022/08/18 15:27:32;;;;;;;1.83;0.88;;;24.30;99.90;;;;;;5055076;28;20055;-81
2022/08/18 15:30:03;;;;;;;3.63;1.00;;;24.30;99.90;;;;;;5063301;28;20071;-80
2022/08/18 15:32:29;;;;;;;2.58;1.00;;;24.30;99.90;;;;;;5067684;28;20040;-80
2022/08/18 15:34:55;;;;;;;1.92;0.90;;;24.20;99.90;;;;;;5047465;28;20032;-81
2022/08/18 15:37:20;;;;;;;5.05;1.05;;;24.30;99.90;;;;;;5066190;28;20047;-80
2022/08/18 15:39:47;;;;;;;2.65;1.10;;;24.30;99.90;;;;;;5064990;28;20090;-82
2022/08/18 15:42:13;;;;;;;1.55;0.80;;;24.40;99.90;;;;;;5062485;28;20130;-81
2022/08/18 15:44:39;;;;;;;3.33;1.35;;;24.50;99.90;;;;;;5052909;28;20617;-80
2022/08/18 15:47:06;;;;;;;2.08;0.82;;;24.60;99.90;;;;;;5080974;28;20044;-80
2022/08/18 15:49:34;;;;;;;1.80;0.75;;;24.60;99.90;;;;;;5054707;28;20051;-81
2022/08/18 15:52:00;;;;;;;3.85;1.00;;;24.70;99.90;;;;;;5061741;28;20421;-81
2022/08/18 15:54:26;;;;;;;1.83;0.70;;;24.60;99.90;;;;;;5059502;28;20052;-81
2022/08/18 15:56:51;;;;;;;1.95;1.10;;;24.60;99.90;;;;;;5064553;28;20071;-79
2022/08/18 15:59:17;;;;;;;4.10;0.80;;;24.60;99.90;;;;;;5055103;28;20056;-81
2022/08/18 16:01:42;;;;;;;2.97;1.00;;;24.60;99.90;;;;;;5045262;28;20040;-81
2022/08/18 16:04:14;;;;;;;1.98;0.80;;;24.50;99.90;;;;;;5062224;28;20036;-81
2022/08/18 16:06:39;;;;;;;2.28;0.90;;;24.40;99.90;;;;;;5065005;28;20477;-82
2022/08/18 16:09:05;;;;;;;3.83;1.35;;;24.30;99.90;;;;;;5046995;28;20048;-81
2022/08/18 16:11:31;;;;;;;2.85;1.10;;;24.20;99.90;;;;;;5062930;28;20055;-80
2022/08/18 16:14:00;;;;;;;2.50;0.80;;;24.10;99.90;;;;;;5061391;28;20036;-80
2022/08/18 16:16:26;;;;;;;3.33;0.80;;;24.00;99.90;;;;;;5078009;28;20044;-82
2022/08/18 16:18:57;;;;;;;2.25;1.00;;;24.00;99.90;;;;;;5062368;28;20044;-82
2022/08/18 16:21:22;;;;;;;1.58;0.70;;;23.90;99.90;;;;;;5057236;28;20967;-81
2022/08/18 16:23:50;;;;;;;1.38;0.80;;;23.80;99.90;;;;;;5079201;28;20039;-82
2022/08/18 16:26:17;;;;;;;1.88;1.10;;;23.80;99.90;;;;;;5060583;28;20059;-81
2022/08/18 16:28:51;;;;;;;2.65;1.30;;;23.70;99.90;;;;;;5078059;28;20050;-81
2022/08/18 16:31:19;;;;;;;3.17;0.82;;;23.90;99.90;;;;;;5076322;28;20072;-80
2022/08/18 16:33:44;;;;;;;2.88;1.20;;;23.60;99.90;;;;;;5043031;28;20055;-80
2022/08/18 16:36:13;;;;;;;2.35;1.13;;;23.50;99.90;;;;;;5076808;28;20040;-80
2022/08/18 16:38:42;;;;;;;2.60;1.02;;;23.50;99.90;;;;;;5060964;28;20047;-80
2022/08/18 16:41:13;;;;;;;4.97;1.15;;;23.40;99.90;;;;;;5056600;28;20040;-83
2022/08/18 16:43:43;;;;;;;2.08;0.90;;;23.30;99.90;;;;;;5062582;28;20486;-80
2022/08/18 16:46:22;;;;;;;2.35;1.10;;;23.30;99.90;;;;;;5058750;28;20082;-80
2022/08/18 16:48:48;;;;;;;2.30;0.93;;;23.20;99.90;;;;;;5072543;28;20040;-79
2022/08/18 16:51:16;;;;;;;1.48;0.70;;;23.20;99.90;;;;;;5056620;28;20400;-79
2022/08/18 16:53:44;;;;;;;1.10;0.70;;;23.10;99.90;;;;;;5060041;28;21724;-80
2022/08/18 16:56:12;;;;;;;2.65;1.02;;;23.00;99.90;;;;;;5049791;28;20044;-80
2022/08/18 17:04:06;;;;;;;3.17;0.90;;;22.90;99.90;;;;;;5058395;28;20051;-80
2022/08/18 17:06:34;;;;;;;2.70;1.17;;;22.80;99.90;;;;;;5078969;28;20048;-79
2022/08/18 17:09:00;;;;;;;3.90;1.30;;;22.80;99.90;;;;;;5055450;28;20036;-79
2022/08/18 17:11:27;;;;;;;3.78;1.20;;;22.80;99.90;;;;;;5058602;28;20440;-81
2022/08/18 17:13:56;;;;;;;1.65;1.10;;;22.80;99.90;;;;;;5059275;28;22056;-82
2022/08/18 17:16:25;;;;;;;5.82;1.48;;;22.70;99.90;;;;;;5059255;28;20086;-81
2022/08/18 17:18:52;;;;;;;3.55;1.05;;;22.60;99.90;;;;;;5059333;28;20075;-81
2022/08/18 17:21:22;;;;;;;1.98;0.80;;;22.60;99.90;;;;;;5057947;28;20043;-81
2022/08/18 17:23:50;;;;;;;3.30;1.23;;;22.50;99.90;;;;;;5052841;28;20048;-80
2022/08/18 17:26:37;;;;;;;1.58;0.75;;;22.50;99.90;;;;;;5053617;28;20068;-80
2022/08/18 17:29:14;;;;;;;1.92;0.90;;;22.40;99.90;;;;;;5041157;28;20044;-80
2022/08/18 17:32:02;;;;;;;2.30;0.90;;;22.40;99.90;;;;;;5061147;28;20134;-80
2022/08/18 17:34:35;;;;;;;1.92;1.10;;;22.40;99.90;;;;;;5053975;28;20072;-81
2022/08/18 17:37:02;;;;;;;3.20;1.20;;;22.30;99.90;;;;;;5052101;28;20044;-79
2022/08/18 17:39:35;;;;;;;3.67;1.48;;;22.30;99.90;;;;;;5056787;28;20050;-80
2022/08/18 17:44:47;;;;;;;2.22;0.98;;;22.20;99.90;;;;;;5064279;28;20051;-80
2022/08/18 17:47:24;;;;;;;2.35;1.38;;;22.30;99.90;;;;;;5080490;28;20109;-80
2022/08/18 17:52:52;;;;;;;3.10;0.90;;;22.10;99.90;;;;;;5081031;28;20079;-81